createdAt,value
2022-10-16T00:01:35.108Z,5.00
2022-10-16T00:04:02.563Z,4.53
2022-10-16T00:06:30.289Z,4.30
2022-10-16T00:08:57.362Z,5.03
2022-10-16T00:11:30.245Z,4.77
2022-10-16T00:13:59.730Z,4.77
2022-10-16T00:16:27.544Z,4.50
2022-10-16T00:18:54.838Z,4.40
2022-10-16T00:21:25.185Z,4.47
2022-10-16T00:23:57.387Z,4.30
2022-10-16T00:26:24.515Z,4.27
2022-10-16T00:28:52.325Z,4.23
2022-10-16T00:31:21.298Z,3.97
2022-10-16T00:33:48.244Z,5.00
2022-10-16T00:36:18.912Z,4.63
2022-10-16T00:38:45.944Z,4.40
2022-10-16T00:41:16.545Z,4.23
2022-10-16T00:43:58.523Z,4.37
2022-10-16T00:46:38.017Z,4.67
2022-10-16T00:49:11.427Z,4.50
2022-10-16T00:51:48.365Z,3.93
2022-10-16T00:54:22.372Z,3.33
2022-10-16T00:56:50.133Z,3.40
2022-10-16T00:59:21.538Z,3.73
2022-10-16T01:01:48.363Z,4.30
2022-10-16T01:04:15.475Z,3.37
2022-10-16T01:06:48.159Z,3.83
2022-10-16T01:09:32.166Z,3.60
2022-10-16T01:12:22.212Z,3.80
2022-10-16T01:15:00.810Z,3.97
2022-10-16T01:17:49.216Z,3.77
2022-10-16T01:20:24.942Z,3.80
2022-10-16T01:23:10.722Z,3.50
2022-10-16T01:26:02.458Z,3.80
2022-10-16T01:28:35.449Z,3.37
2022-10-16T01:31:03.785Z,3.57
2022-10-16T01:33:42.814Z,3.70
2022-10-16T01:36:15.453Z,3.20
2022-10-16T01:38:46.068Z,3.40
2022-10-16T01:41:36.250Z,3.77
2022-10-16T01:44:19.877Z,3.40
2022-10-16T01:46:51.318Z,3.07
2022-10-16T01:49:19.759Z,3.40
2022-10-16T01:51:50.840Z,3.70
2022-10-16T01:54:19.881Z,3.13
2022-10-16T01:56:48.875Z,3.90
2022-10-16T01:59:19.563Z,3.80
2022-10-16T02:01:50.298Z,3.83
2022-10-16T02:04:24.362Z,3.80
2022-10-16T02:06:51.557Z,3.67
2022-10-16T02:09:18.251Z,3.27
2022-10-16T02:11:45.587Z,2.50
2022-10-16T02:14:12.589Z,2.83
2022-10-16T02:16:44.807Z,2.67
2022-10-16T02:19:16.076Z,3.10
2022-10-16T02:21:50.025Z,2.93
2022-10-16T02:24:40.521Z,3.13
2022-10-16T02:27:20.032Z,3.30
2022-10-16T02:29:51.421Z,3.20
2022-10-16T02:32:22.246Z,3.20
2022-10-16T02:34:51.671Z,3.50
2022-10-16T02:37:19.747Z,3.13
2022-10-16T02:39:46.578Z,3.30
2022-10-16T02:42:15.017Z,4.03
2022-10-16T02:44:42.098Z,3.60
2022-10-16T02:47:08.819Z,3.27
2022-10-16T02:49:35.632Z,3.43
2022-10-16T02:52:02.471Z,3.77
2022-10-16T02:54:29.287Z,3.57
2022-10-16T02:56:56.075Z,3.50
2022-10-16T02:59:22.849Z,3.33
2022-10-16T03:01:49.595Z,3.50
2022-10-16T03:04:16.582Z,3.07
2022-10-16T03:06:43.367Z,3.17
2022-10-16T03:09:10.343Z,2.70
2022-10-16T03:11:37.114Z,3.80
2022-10-16T03:14:04.166Z,3.63
2022-10-16T03:16:30.964Z,3.20
2022-10-16T03:18:57.730Z,3.47
2022-10-16T03:21:24.527Z,3.70
2022-10-16T03:23:51.275Z,3.33
2022-10-16T03:26:18.029Z,2.77
2022-10-16T03:28:44.935Z,3.27
2022-10-16T03:31:11.777Z,3.27
2022-10-16T03:33:38.587Z,2.70
2022-10-16T03:36:05.408Z,2.83
2022-10-16T03:38:32.188Z,2.77
2022-10-16T03:40:59.034Z,2.77
2022-10-16T03:43:25.789Z,2.87
2022-10-16T03:45:52.932Z,3.03
2022-10-16T03:48:20.284Z,2.80
2022-10-16T03:50:49.049Z,2.83
2022-10-16T03:53:16.226Z,2.57
2022-10-16T03:55:43.854Z,2.60
2022-10-16T03:58:10.625Z,2.47
2022-10-16T04:00:40.708Z,2.30
2022-10-16T04:03:07.423Z,2.27
2022-10-16T04:05:34.126Z,2.33
2022-10-16T04:08:00.969Z,2.50
2022-10-16T04:10:27.783Z,2.60
2022-10-16T04:12:57.039Z,2.27
2022-10-16T04:15:24.523Z,2.10
2022-10-16T04:17:51.381Z,2.27
2022-10-16T04:20:18.523Z,2.20
2022-10-16T04:22:45.894Z,2.30
2022-10-16T04:25:12.921Z,2.33
2022-10-16T04:27:42.319Z,2.10
2022-10-16T04:30:12.227Z,1.80
2022-10-16T04:32:38.950Z,2.20
2022-10-16T04:35:06.214Z,2.10
2022-10-16T04:37:33.184Z,2.10
2022-10-16T04:39:59.925Z,1.87
2022-10-16T04:42:26.667Z,2.20
2022-10-16T04:44:53.661Z,1.93
2022-10-16T04:47:20.328Z,2.30
2022-10-16T04:49:47.029Z,2.00
2022-10-16T04:52:13.805Z,1.93
2022-10-16T04:54:40.494Z,2.37
2022-10-16T04:57:07.286Z,2.13
2022-10-16T04:59:34.026Z,1.93
2022-10-16T05:02:00.747Z,2.27
2022-10-16T05:04:27.742Z,2.37
2022-10-16T05:06:54.482Z,2.00
2022-10-16T05:09:21.450Z,2.37
2022-10-16T05:11:48.259Z,2.23
2022-10-16T05:14:15.118Z,2.10
2022-10-16T05:16:41.990Z,1.90
2022-10-16T05:19:26.986Z,1.90
2022-10-16T05:21:54.681Z,2.00
2022-10-16T05:24:21.676Z,2.40
2022-10-16T05:26:48.717Z,1.90
2022-10-16T05:29:15.960Z,2.20
2022-10-16T05:31:42.690Z,2.60
2022-10-16T05:34:09.845Z,2.30
2022-10-16T05:36:36.662Z,2.07
2022-10-16T05:39:04.047Z,2.20
2022-10-16T05:41:30.820Z,2.50
2022-10-16T05:43:57.613Z,2.93
2022-10-16T05:46:24.339Z,2.20
2022-10-16T05:48:54.203Z,2.37
2022-10-16T05:51:20.917Z,3.03
2022-10-16T05:53:47.992Z,2.23
2022-10-16T05:56:15.018Z,2.23
2022-10-16T05:58:42.539Z,2.53
2022-10-16T06:01:13.409Z,2.10
2022-10-16T06:03:41.045Z,2.30
2022-10-16T06:06:21.881Z,2.33
2022-10-16T06:08:50.165Z,2.27
2022-10-16T06:11:31.534Z,2.37
2022-10-16T06:14:07.558Z,2.10
2022-10-16T06:16:38.461Z,2.83
2022-10-16T06:19:08.159Z,2.40
2022-10-16T06:21:35.102Z,2.50
2022-10-16T06:24:02.203Z,2.40
2022-10-16T06:26:31.032Z,11.83
2022-10-16T06:28:59.921Z,11.17
2022-10-16T06:31:28.907Z,22.63
2022-10-16T06:33:57.138Z,14.03
2022-10-16T06:36:25.759Z,8.80
2022-10-16T06:38:52.708Z,4.67
2022-10-16T06:41:21.545Z,3.13
2022-10-16T06:43:49.085Z,2.37
2022-10-16T06:46:19.106Z,2.60
2022-10-16T06:48:46.215Z,2.80
2022-10-16T06:51:14.781Z,2.97
2022-10-16T06:54:01.833Z,2.70
2022-10-16T06:56:32.185Z,3.33
2022-10-16T06:58:59.361Z,3.20
2022-10-16T07:01:26.965Z,2.70
2022-10-16T07:03:54.632Z,3.20
2022-10-16T07:06:23.754Z,2.90
2022-10-16T07:08:50.932Z,2.57
2022-10-16T07:11:20.481Z,2.87
2022-10-16T07:13:52.600Z,2.77
2022-10-16T07:16:27.828Z,2.73
2022-10-16T07:18:59.921Z,3.37
2022-10-16T07:21:30.015Z,3.40
2022-10-16T07:23:59.614Z,3.43
2022-10-16T07:26:28.948Z,3.70
2022-10-16T07:28:56.020Z,3.67
2022-10-16T07:31:23.765Z,4.27
2022-10-16T07:33:50.897Z,4.13
2022-10-16T07:36:19.206Z,3.67
2022-10-16T07:38:46.702Z,3.77
2022-10-16T07:41:15.939Z,3.60
2022-10-16T07:43:48.417Z,4.27
2022-10-16T07:46:16.181Z,3.73
2022-10-16T07:48:46.616Z,3.37
2022-10-16T07:51:15.255Z,3.80
2022-10-16T07:53:42.246Z,3.73
2022-10-16T07:56:09.177Z,3.37
2022-10-16T07:58:39.793Z,3.30
2022-10-16T08:01:09.230Z,3.40
2022-10-16T08:03:36.284Z,3.37
2022-10-16T08:06:03.918Z,2.50
2022-10-16T08:08:31.298Z,2.30
2022-10-16T08:10:58.099Z,2.30
2022-10-16T08:13:25.183Z,2.63
2022-10-16T08:15:51.901Z,2.60
2022-10-16T08:18:18.721Z,2.47
2022-10-16T08:20:45.485Z,2.13
2022-10-16T08:23:14.074Z,2.43
2022-10-16T08:25:42.236Z,2.13
2022-10-16T08:28:11.022Z,2.03
2022-10-16T08:30:38.175Z,2.40
2022-10-16T08:33:05.402Z,2.03
2022-10-16T08:35:32.215Z,2.37
2022-10-16T08:37:59.030Z,2.10
2022-10-16T08:40:34.114Z,2.63
2022-10-16T08:43:22.129Z,2.50
2022-10-16T08:46:12.180Z,2.40
2022-10-16T08:48:51.670Z,3.07
2022-10-16T08:51:25.073Z,3.17
2022-10-16T08:53:56.329Z,2.90
2022-10-16T08:56:24.128Z,3.30
2022-10-16T08:58:55.099Z,2.70
2022-10-16T09:01:40.322Z,2.17
2022-10-16T09:04:19.979Z,2.40
2022-10-16T09:06:47.618Z,2.70
2022-10-16T09:09:43.289Z,3.10
2022-10-16T09:12:21.629Z,2.50
2022-10-16T09:15:07.530Z,2.57
2022-10-16T09:17:57.565Z,2.93
2022-10-16T09:20:37.303Z,2.03
2022-10-16T09:23:06.757Z,2.77
2022-10-16T09:25:34.939Z,2.47
2022-10-16T09:28:01.628Z,2.70
2022-10-16T09:30:32.554Z,2.50
2022-10-16T09:33:00.304Z,3.03
2022-10-16T09:35:43.670Z,3.07
2022-10-16T09:38:22.083Z,2.77
2022-10-16T09:40:52.127Z,2.53
2022-10-16T09:43:39.993Z,3.57
2022-10-16T09:46:10.097Z,3.63
2022-10-16T09:48:45.368Z,3.60
2022-10-16T09:51:24.537Z,3.50
2022-10-16T09:53:56.818Z,3.50
2022-10-16T09:56:29.508Z,3.53
2022-10-16T09:59:11.442Z,3.10
2022-10-16T10:01:41.422Z,3.77
2022-10-16T10:04:09.027Z,3.60
2022-10-16T10:06:57.185Z,4.00
2022-10-16T10:09:35.355Z,3.27
2022-10-16T10:14:41.113Z,2.83
2022-10-16T10:17:07.898Z,3.10
2022-10-16T10:19:40.481Z,3.23
2022-10-16T10:22:29.111Z,3.30
2022-10-16T10:25:29.939Z,3.27
2022-10-16T10:28:14.601Z,3.20
2022-10-16T10:31:09.292Z,3.23
2022-10-16T10:33:46.026Z,3.30
2022-10-16T10:36:31.482Z,3.07
2022-10-16T10:39:06.730Z,2.70
2022-10-16T10:41:52.484Z,2.77
2022-10-16T10:44:46.327Z,3.00
2022-10-16T10:47:38.252Z,5.20
2022-10-16T10:50:32.985Z,7.30
2022-10-16T10:53:25.947Z,6.77
2022-10-16T10:56:14.183Z,4.87
2022-10-16T10:59:20.099Z,5.87
2022-10-16T11:01:57.564Z,6.03
2022-10-16T11:04:44.040Z,6.47
2022-10-16T11:07:26.065Z,6.57
2022-10-16T11:10:03.340Z,5.20
2022-10-16T11:12:40.652Z,3.93
2022-10-16T11:15:18.132Z,2.30
2022-10-16T11:18:22.398Z,2.27
2022-10-16T11:20:57.178Z,2.10
2022-10-16T11:23:42.759Z,2.07
2022-10-16T11:26:24.661Z,1.80
2022-10-16T11:28:57.059Z,1.97
2022-10-16T11:31:44.049Z,1.60
2022-10-16T11:34:37.944Z,1.80
2022-10-16T11:37:18.171Z,1.37
2022-10-16T11:39:46.079Z,1.40
2022-10-16T11:42:20.414Z,1.43
2022-10-16T11:45:06.062Z,1.70
2022-10-16T11:47:58.748Z,1.70
2022-10-16T11:51:04.620Z,1.43
2022-10-16T11:53:46.365Z,1.60
2022-10-16T11:56:23.655Z,1.40
2022-10-16T11:59:04.994Z,1.30
2022-10-16T12:01:40.256Z,1.70
2022-10-16T12:04:22.096Z,1.30
2022-10-16T12:07:05.543Z,1.40
2022-10-16T12:09:34.101Z,1.50
2022-10-16T12:12:01.494Z,1.40
2022-10-16T12:14:46.887Z,1.30
2022-10-16T12:17:21.846Z,1.30
2022-10-16T12:20:16.337Z,1.30
2022-10-16T12:22:57.958Z,1.40
2022-10-16T12:25:29.858Z,1.10
2022-10-16T12:28:18.327Z,1.40
2022-10-16T12:30:55.023Z,1.40
2022-10-16T12:33:31.251Z,1.80
2022-10-16T12:36:01.404Z,1.53
2022-10-16T12:38:37.096Z,1.57
2022-10-16T12:41:06.463Z,1.50
2022-10-16T12:43:46.958Z,1.20
2022-10-16T12:46:13.779Z,1.37
2022-10-16T12:48:55.365Z,1.40
2022-10-16T12:51:31.295Z,1.30
2022-10-16T12:54:11.642Z,1.10
2022-10-16T12:56:44.504Z,1.30
2022-10-16T12:59:17.645Z,1.30
2022-10-16T13:02:29.508Z,1.30
2022-10-16T13:05:05.288Z,1.10
2022-10-16T13:07:42.814Z,1.70
2022-10-16T13:10:42.125Z,1.30
2022-10-16T13:13:27.146Z,1.43
2022-10-16T13:16:36.263Z,1.80
2022-10-16T13:19:26.995Z,1.50
2022-10-16T13:22:12.190Z,1.30
2022-10-16T13:24:50.845Z,1.50
2022-10-16T13:27:20.719Z,1.43
2022-10-16T13:29:56.328Z,1.30
2022-10-16T13:32:23.454Z,1.70
2022-10-16T13:34:50.499Z,1.40
2022-10-16T13:37:23.345Z,1.20
2022-10-16T13:39:51.670Z,1.43
2022-10-16T13:42:28.018Z,1.30
2022-10-16T13:44:57.342Z,1.40
2022-10-16T13:47:27.248Z,1.27
2022-10-16T13:50:20.549Z,1.60
2022-10-16T13:52:47.514Z,1.67
2022-10-16T13:55:19.596Z,1.20
2022-10-16T13:57:46.487Z,1.03
2022-10-16T14:00:20.827Z,1.27
2022-10-16T14:02:54.122Z,1.30
2022-10-16T14:05:21.101Z,1.30
2022-10-16T14:07:52.173Z,1.37
2022-10-16T14:10:27.564Z,1.63
2022-10-16T14:13:03.918Z,1.13
2022-10-16T14:15:33.654Z,1.57
2022-10-16T14:18:00.968Z,1.30
2022-10-16T14:20:30.919Z,1.17
2022-10-16T14:23:02.213Z,1.20
2022-10-16T14:25:32.650Z,1.37
2022-10-16T14:28:14.920Z,1.90
2022-10-16T14:30:53.698Z,1.20
2022-10-16T14:33:26.307Z,1.33
2022-10-16T14:36:21.620Z,1.30
2022-10-16T14:39:15.622Z,1.30
2022-10-16T14:41:46.533Z,1.40
2022-10-16T14:44:13.896Z,1.30
2022-10-16T14:46:43.757Z,1.67
2022-10-16T14:49:10.478Z,1.73
2022-10-16T14:51:38.753Z,1.60
2022-10-16T14:54:06.186Z,1.40
2022-10-16T14:56:51.943Z,1.80
2022-10-16T14:59:31.328Z,1.80
2022-10-16T15:01:58.268Z,2.00
2022-10-16T15:04:25.072Z,1.80
2022-10-16T15:06:52.220Z,1.90
2022-10-16T15:09:18.952Z,1.70
2022-10-16T15:11:45.870Z,1.97
2022-10-16T15:16:41.952Z,2.27
2022-10-16T15:19:08.846Z,1.80
2022-10-16T15:21:35.700Z,1.70
2022-10-16T15:24:02.635Z,1.70
2022-10-16T15:26:31.033Z,2.13
2022-10-16T15:28:58.196Z,2.60
2022-10-16T15:31:25.271Z,2.20
2022-10-16T15:33:55.234Z,2.03
2022-10-16T15:36:38.954Z,2.90
2022-10-16T15:39:19.537Z,2.37
2022-10-16T15:41:52.207Z,2.83
2022-10-16T15:44:19.797Z,2.77
2022-10-16T15:46:47.303Z,2.43
2022-10-16T15:49:14.699Z,2.47
2022-10-16T15:51:43.196Z,2.93
2022-10-16T15:54:10.358Z,2.37
2022-10-16T15:56:38.190Z,2.77
2022-10-16T15:59:05.588Z,2.33
2022-10-16T16:01:36.808Z,3.17
2022-10-16T16:04:11.031Z,3.63
2022-10-16T16:06:45.827Z,3.43
2022-10-16T16:09:14.647Z,4.57
2022-10-16T16:11:41.851Z,9.33
2022-10-16T16:14:12.772Z,5.30
2022-10-16T16:16:39.674Z,5.53
2022-10-16T16:19:10.739Z,6.23
2022-10-16T16:21:39.349Z,5.50
2022-10-16T16:24:09.625Z,6.87
2022-10-16T16:26:40.388Z,6.90
2022-10-16T16:29:07.590Z,6.00
2022-10-16T16:31:35.736Z,5.50
2022-10-16T16:34:03.633Z,5.70
2022-10-16T16:36:30.454Z,4.90
2022-10-16T16:38:58.294Z,4.53
2022-10-16T16:41:27.770Z,4.40
2022-10-16T16:43:55.736Z,4.13
2022-10-16T16:46:23.503Z,4.70
2022-10-16T16:48:55.685Z,4.50
2022-10-16T16:51:22.894Z,3.97
2022-10-16T16:53:52.052Z,4.33
2022-10-16T16:56:19.996Z,3.60
2022-10-16T16:58:47.848Z,3.70
2022-10-16T17:01:19.842Z,3.70
2022-10-16T17:03:50.481Z,3.50
2022-10-16T17:06:20.322Z,4.03
2022-10-16T17:08:49.159Z,3.50
2022-10-16T17:11:21.901Z,5.33
2022-10-16T17:13:53.914Z,4.20
2022-10-16T17:16:26.126Z,4.53
2022-10-16T17:18:54.166Z,4.33
2022-10-16T17:21:21.551Z,4.13
2022-10-16T17:23:48.313Z,4.17
2022-10-16T17:26:17.267Z,3.90
2022-10-16T17:28:44.638Z,4.33
2022-10-16T17:31:16.577Z,5.07
2022-10-16T17:33:44.152Z,4.60
2022-10-16T17:36:11.942Z,5.53
2022-10-16T17:38:38.774Z,4.60
2022-10-16T17:41:32.634Z,4.77
2022-10-16T17:43:59.695Z,4.43
2022-10-16T17:46:26.766Z,4.00
2022-10-16T17:48:54.791Z,4.47
2022-10-16T17:51:25.550Z,4.10
2022-10-16T17:53:54.204Z,4.07
2022-10-16T17:56:21.411Z,4.20
2022-10-16T17:58:53.657Z,5.73
2022-10-16T18:01:24.053Z,7.77
2022-10-16T18:04:04.809Z,8.50
2022-10-16T18:06:32.284Z,9.10
2022-10-16T18:09:00.155Z,8.17
2022-10-16T18:11:27.402Z,6.53
2022-10-16T18:13:56.035Z,6.47
2022-10-16T18:16:24.501Z,6.87
2022-10-16T18:18:51.413Z,6.73
2022-10-16T18:21:19.899Z,5.57
2022-10-16T18:23:51.688Z,5.87
2022-10-16T18:26:19.441Z,4.37
2022-10-16T18:28:46.401Z,4.13
2022-10-16T18:31:16.194Z,4.23
2022-10-16T18:33:51.098Z,4.77
2022-10-16T18:36:21.653Z,4.67
2022-10-16T18:38:49.130Z,3.87
2022-10-16T18:41:16.118Z,4.50
2022-10-16T18:43:43.215Z,3.63
2022-10-16T18:46:16.105Z,3.90
2022-10-16T18:48:44.215Z,6.60
2022-10-16T18:51:21.389Z,13.63
2022-10-16T18:53:51.077Z,13.33
2022-10-16T18:56:19.877Z,14.13
2022-10-16T18:58:51.117Z,12.03
2022-10-16T19:01:23.250Z,8.03
2022-10-16T19:03:54.724Z,5.27
2022-10-16T19:06:22.001Z,4.50
2022-10-16T19:08:48.871Z,3.37
2022-10-16T19:11:21.401Z,3.90
2022-10-16T19:13:49.465Z,4.30
2022-10-16T19:16:22.389Z,3.73
2022-10-16T19:18:54.555Z,3.53
2022-10-16T19:21:22.006Z,3.73
2022-10-16T19:23:56.557Z,8.43
2022-10-16T19:26:24.112Z,6.23
2022-10-16T19:28:53.336Z,5.67
2022-10-16T19:31:22.394Z,5.10
2022-10-16T19:33:55.876Z,4.83
2022-10-16T19:36:28.156Z,4.47
2022-10-16T19:39:03.702Z,3.93
2022-10-16T19:41:31.341Z,4.10
2022-10-16T19:44:07.094Z,4.50
2022-10-16T19:46:34.990Z,4.10
2022-10-16T19:49:05.047Z,4.30
2022-10-16T19:51:32.705Z,4.23
2022-10-16T19:54:02.549Z,4.37
2022-10-16T19:56:31.304Z,3.53
2022-10-16T19:58:59.902Z,3.77
2022-10-16T20:01:31.816Z,4.63
2022-10-16T20:03:59.096Z,4.40
2022-10-16T20:06:26.228Z,4.67
2022-10-16T20:08:54.100Z,4.37
2022-10-16T20:11:23.374Z,4.37
2022-10-16T20:13:51.053Z,3.60
2022-10-16T20:16:19.676Z,5.93
2022-10-16T20:18:48.347Z,5.30
2022-10-16T20:21:23.683Z,4.37
2022-10-16T20:23:51.104Z,4.13
2022-10-16T20:26:20.111Z,5.43
2022-10-16T20:28:47.044Z,4.23
2022-10-16T20:31:20.732Z,4.33
2022-10-16T20:33:47.548Z,5.00
2022-10-16T20:36:16.228Z,4.80
2022-10-16T20:38:44.095Z,4.80
2022-10-16T20:41:11.544Z,4.87
2022-10-16T20:46:17.625Z,5.47
2022-10-16T20:48:46.725Z,5.40
2022-10-16T20:51:18.260Z,4.87
2022-10-16T20:53:46.823Z,5.00
2022-10-16T20:56:16.004Z,4.80
2022-10-16T20:58:43.080Z,4.20
2022-10-16T21:01:13.169Z,4.50
2022-10-16T21:03:40.373Z,4.07
2022-10-16T21:06:09.683Z,4.30
2022-10-16T21:08:38.749Z,4.47
2022-10-16T21:11:19.198Z,4.47
2022-10-16T21:13:46.739Z,4.27
2022-10-16T21:16:14.738Z,3.90
2022-10-16T21:18:44.534Z,4.00
2022-10-16T21:21:19.994Z,3.87
2022-10-16T21:23:47.927Z,4.47
2022-10-16T21:26:14.909Z,4.30
2022-10-16T21:28:41.993Z,3.93
2022-10-16T21:31:19.080Z,4.33
2022-10-16T21:33:46.721Z,3.60
2022-10-16T21:36:16.067Z,3.80
2022-10-16T21:38:43.369Z,4.00
2022-10-16T21:41:29.876Z,4.03
2022-10-16T21:43:57.572Z,3.83
2022-10-16T21:46:27.136Z,4.00
2022-10-16T21:48:58.217Z,4.10
2022-10-16T21:51:31.276Z,4.30
2022-10-16T21:53:58.065Z,3.47
2022-10-16T21:56:24.933Z,3.00
2022-10-16T21:58:52.078Z,3.73
2022-10-16T22:01:22.315Z,4.20
2022-10-16T22:03:52.454Z,3.73
2022-10-16T22:08:51.161Z,4.10
2022-10-16T22:11:23.052Z,4.00
2022-10-16T22:13:54.137Z,3.80
2022-10-16T22:16:25.161Z,3.63
2022-10-16T22:18:53.170Z,3.70
2022-10-16T22:21:19.913Z,3.80
2022-10-16T22:23:46.870Z,3.87
2022-10-16T22:26:13.812Z,3.20
2022-10-16T22:28:41.444Z,3.60
2022-10-16T22:31:11.029Z,3.20
2022-10-16T22:33:38.115Z,2.83
2022-10-16T22:36:08.773Z,3.97
2022-10-16T22:38:36.554Z,4.10
2022-10-16T22:41:12.520Z,4.23
2022-10-16T22:43:49.657Z,3.97
2022-10-16T22:46:28.285Z,3.70
2022-10-16T22:48:56.114Z,3.47
2022-10-16T22:51:27.643Z,4.23
2022-10-16T22:53:54.671Z,3.93
2022-10-16T22:56:22.133Z,3.30
2022-10-16T22:58:49.351Z,3.80
2022-10-16T23:01:19.815Z,3.27
2022-10-16T23:03:46.610Z,3.00
2022-10-16T23:06:13.700Z,2.67
2022-10-16T23:08:40.724Z,2.50
2022-10-16T23:11:09.844Z,2.60
2022-10-16T23:13:45.086Z,2.33
2022-10-16T23:16:15.706Z,2.20
2022-10-16T23:18:44.197Z,2.60
2022-10-16T23:21:14.611Z,2.60
2022-10-16T23:23:41.887Z,2.60
2022-10-16T23:26:17.812Z,1.83
2022-10-16T23:28:45.426Z,2.43
2022-10-16T23:31:17.231Z,2.70
2022-10-16T23:33:44.644Z,2.30
2022-10-16T23:36:14.922Z,2.20
2022-10-16T23:38:43.298Z,2.60
2022-10-16T23:41:10.919Z,2.20
2022-10-16T23:43:37.849Z,2.40
2022-10-16T23:46:05.548Z,2.70
2022-10-16T23:48:32.387Z,2.80
2022-10-16T23:50:59.219Z,3.07
2022-10-16T23:53:26.893Z,3.30
2022-10-16T23:55:53.679Z,2.60
2022-10-16T23:58:21.145Z,3.53
